Time;durP1;ratioP1;P1;durP2;ratioP2;P2;SDS_P1;SDS_P2;PMS_P1;PMS_P2;Temp;Humidity;BMP_temperature;BMP_pressure;BME280_temperature;BME280_humidity;BME280_pressure;Samples;Min_cycle;Max_cycle;Signal;HPM_P1;HPM_P2
2024/01/21 00:02:41;;;;;;;1.95;1.65;;;;;;;-5.22;70.35;147360.72;10678444;27;20111;-76
2024/01/21 00:07:42;;;;;;;4.60;1.88;;;;;;;-5.53;70.99;147284.28;10659292;27;20039;-75
2024/01/21 00:12:44;;;;;;;2.90;1.77;;;;;;;-5.57;71.19;147272.81;10658967;27;20064;-75
2024/01/21 00:17:46;;;;;;;4.38;1.95;;;;;;;-5.66;71.90;147252.44;10657442;27;20043;-76
2024/01/21 00:22:49;;;;;;;2.95;1.95;;;;;;;-5.59;71.42;147268.97;10676481;27;20047;-75
2024/01/21 00:27:51;;;;;;;2.58;1.83;;;;;;;-5.92;72.88;147187.53;10676226;27;20045;-76
2024/01/21 00:32:53;;;;;;;2.05;1.77;;;;;;;-5.89;73.92;147195.13;10674661;27;20062;-75
2024/01/21 00:37:55;;;;;;;3.50;2.38;;;;;;;-5.85;73.65;147204.00;10675143;27;20043;-75
2024/01/21 00:42:59;;;;;;;1.95;1.60;;;;;;;-6.07;74.86;147149.28;10675052;27;20049;-75
2024/01/21 00:48:00;;;;;;;4.43;2.53;;;;;;;-6.01;75.00;147163.34;10656783;27;20042;-76
2024/01/21 00:53:02;;;;;;;3.22;2.10;;;;;;;-6.28;75.84;147095.84;10674755;27;20035;-75
2024/01/21 00:58:04;;;;;;;2.88;2.28;;;;;;;-6.28;75.88;147097.13;10675223;27;20041;-75
2024/01/21 01:03:06;;;;;;;4.38;2.83;;;;;;;-6.20;76.44;147116.19;10655121;27;20050;-76
2024/01/21 01:08:08;;;;;;;3.90;2.22;;;;;;;-6.47;77.16;147050.00;10674286;27;20043;-76
2024/01/21 01:13:10;;;;;;;3.10;2.33;;;;;;;-6.18;77.47;147122.56;10654925;27;20077;-77
2024/01/21 01:18:13;;;;;;;7.97;2.92;;;;;;;-6.38;77.82;147071.63;10674125;27;20070;-76
2024/01/21 01:23:15;;;;;;;3.30;2.60;;;;;;;-6.45;78.34;147053.84;10673249;27;20043;-76
2024/01/21 01:28:17;;;;;;;5.35;2.85;;;;;;;-6.43;78.45;147058.91;10654798;27;20039;-76
2024/01/21 01:33:19;;;;;;;4.82;3.30;;;;;;;-6.41;79.16;147064.03;10674170;27;20148;-76
2024/01/21 01:38:21;;;;;;;4.43;3.13;;;;;;;-6.26;78.86;147102.19;10655816;27;20049;-75
2024/01/21 01:43:23;;;;;;;3.13;2.47;;;;;;;-6.49;79.30;147043.66;10673765;27;20406;-76
2024/01/21 01:48:25;;;;;;;4.22;3.08;;;;;;;-6.64;79.68;147006.72;10655529;27;20046;-76
2024/01/21 01:53:29;;;;;;;4.00;2.97;;;;;;;-6.06;78.64;147150.56;10673180;27;20038;-75
2024/01/21 01:58:34;;;;;;;5.07;2.55;;;;;;;-6.18;78.59;147121.31;10655243;27;20429;-76
2024/01/21 02:03:35;;;;;;;3.17;2.25;;;;;;;-6.40;77.53;147066.56;10655459;27;20445;-75
2024/01/21 02:08:38;;;;;;;3.60;2.20;;;;;;;-6.24;78.15;147107.31;10653709;27;20091;-75
2024/01/21 02:13:40;;;;;;;4.45;2.53;;;;;;;-6.19;77.08;147120.03;10671685;27;20050;-75
2024/01/21 02:18:48;;;;;;;4.78;2.63;;;;;;;-6.23;77.16;147108.59;10672298;27;20034;-75
2024/01/21 02:23:50;;;;;;;2.65;1.90;;;;;;;-6.27;76.55;147099.66;10671146;27;20043;-75
2024/01/21 02:28:51;;;;;;;4.32;2.70;;;;;;;-6.37;76.71;147074.22;10670840;27;20173;-75
2024/01/21 02:33:53;;;;;;;2.90;1.90;;;;;;;-6.33;76.79;147084.34;10671066;27;20540;-76
2024/01/21 02:38:55;;;;;;;2.67;2.00;;;;;;;-6.44;76.63;147057.66;10671290;27;20066;-77
2024/01/21 02:43:57;;;;;;;3.78;2.25;;;;;;;-6.67;76.86;147000.38;10670343;27;20066;-76
2024/01/21 02:48:58;;;;;;;2.28;1.42;;;;;;;-6.46;75.84;147051.25;10672102;27;20063;-75
2024/01/21 02:54:00;;;;;;;3.42;1.77;;;;;;;-6.51;75.23;147038.53;10671612;27;20061;-76
2024/01/21 02:59:02;;;;;;;2.60;2.13;;;;;;;-6.56;74.77;147025.81;10672027;27;20070;-77
2024/01/21 03:04:04;;;;;;;2.30;1.60;;;;;;;-6.43;74.52;147060.19;10675570;27;20042;-75
2024/01/21 03:09:06;;;;;;;2.53;1.55;;;;;;;-6.61;74.83;147015.63;10680282;27;20042;-76
2024/01/21 03:14:08;;;;;;;2.63;1.25;;;;;;;-6.41;74.32;147064.03;10661414;27;20047;-75
2024/01/21 03:19:10;;;;;;;2.40;1.35;;;;;;;-6.30;72.79;147092.00;10679092;27;20091;-75
2024/01/21 03:24:11;;;;;;;1.83;1.50;;;;;;;-6.31;72.10;147088.22;10679220;27;20043;-76
2024/01/21 03:29:13;;;;;;;2.13;1.42;;;;;;;-6.13;69.95;147135.31;10678959;27;20038;-75
2024/01/21 03:34:15;;;;;;;1.45;1.08;;;;;;;-6.10;68.07;147142.94;10678847;27;20038;-75
2024/01/21 03:39:17;;;;;;;1.75;1.08;;;;;;;-6.11;68.11;147139.09;10660402;27;20039;-76
2024/01/21 03:44:19;;;;;;;2.45;1.20;;;;;;;-6.24;67.79;147106.00;10677900;27;20046;-76
2024/01/21 03:49:21;;;;;;;4.35;1.15;;;;;;;-6.52;68.88;147036.00;10678259;27;20043;-75
2024/01/21 03:54:22;;;;;;;2.50;1.15;;;;;;;-6.44;69.64;147056.38;10659431;27;20110;-76
2024/01/21 03:59:24;;;;;;;2.13;1.13;;;;;;;-6.10;68.28;147141.69;10677368;27;20034;-76
2024/01/21 04:04:28;;;;;;;3.75;2.20;;;;;;;-6.35;70.05;147079.28;10676634;27;20043;-75
2024/01/21 04:09:31;;;;;;;2.38;1.73;;;;;;;-6.24;70.62;147107.31;10658497;27;20039;-75
2024/01/21 04:14:33;;;;;;;2.92;1.70;;;;;;;-6.40;71.55;147066.56;10675039;27;20043;-75
2024/01/21 04:19:34;;;;;;;1.65;1.17;;;;;;;-6.39;71.56;147070.38;10676089;27;20027;-76
2024/01/21 04:24:36;;;;;;;3.08;1.88;;;;;;;-6.35;70.69;147079.28;10676441;27;20039;-75
2024/01/21 04:29:38;;;;;;;2.80;1.50;;;;;;;-6.32;70.54;147085.69;10657422;27;20039;-74
2024/01/21 04:34:40;;;;;;;1.95;1.02;;;;;;;-6.37;69.50;147074.22;10656917;27;20410;-75
2024/01/21 04:39:42;;;;;;;1.70;1.00;;;;;;;-6.44;69.65;147057.66;10675790;27;20428;-75
2024/01/21 04:44:44;;;;;;;2.33;1.38;;;;;;;-6.60;70.28;147016.91;10675069;27;20043;-76
2024/01/21 04:49:46;;;;;;;2.45;1.50;;;;;;;-6.75;70.90;146978.75;10675574;27;20039;-76
2024/01/21 04:54:48;;;;;;;3.22;1.88;;;;;;;-6.70;70.83;146992.72;10656432;27;20091;-75
2024/01/21 04:59:50;;;;;;;3.15;1.98;;;;;;;-6.81;71.51;146964.75;10674314;27;20042;-75
2024/01/21 05:04:52;;;;;;;2.35;1.50;;;;;;;-6.61;70.76;147014.38;10673391;27;20556;-75
2024/01/21 05:09:54;;;;;;;2.88;1.90;;;;;;;-6.78;71.70;146972.38;10673581;27;20073;-75
2024/01/21 05:14:56;;;;;;;4.00;2.10;;;;;;;-6.78;71.62;146971.09;10674473;27;20460;-76
2024/01/21 05:19:58;;;;;;;4.25;2.65;;;;;;;-6.77;72.36;146973.63;10673676;27;20039;-76
2024/01/21 05:24:59;;;;;;;4.68;3.13;;;;;;;-6.84;74.14;146957.13;10654143;27;20098;-75
2024/01/21 05:30:01;;;;;;;4.45;3.25;;;;;;;-6.52;74.65;147037.28;10673296;27;20035;-76
2024/01/21 05:35:04;;;;;;;6.50;5.07;;;;;;;-6.54;75.60;147032.19;10673942;27;20040;-76
2024/01/21 05:40:07;;;;;;;7.68;5.15;;;;;;;-6.37;75.11;147074.22;10673132;27;20043;-76
2024/01/21 05:45:10;;;;;;;6.57;5.30;;;;;;;-6.66;76.17;147002.91;10673049;27;20054;-74
2024/01/21 05:50:12;;;;;;;5.75;4.43;;;;;;;-6.55;76.77;147028.34;10653728;27;20034;-75
2024/01/21 05:55:13;;;;;;;9.00;5.20;;;;;;;-6.53;76.09;147034.75;10673380;27;20046;-76
2024/01/21 06:00:16;;;;;;;7.80;5.68;;;;;;;-6.56;77.55;147025.81;10671141;27;20039;-75
2024/01/21 06:05:18;;;;;;;7.57;5.00;;;;;;;-6.38;77.12;147072.91;10671846;27;20095;-75
2024/01/21 06:10:20;;;;;;;6.22;5.30;;;;;;;-6.37;77.30;147074.22;10671538;27;20105;-76
2024/01/21 06:15:21;;;;;;;6.32;4.75;;;;;;;-6.47;78.08;147050.00;10671418;27;20066;-76
2024/01/21 06:20:24;;;;;;;9.48;5.70;;;;;;;-6.36;78.05;147076.75;10672600;27;20093;-75
2024/01/21 06:25:25;;;;;;;7.30;4.97;;;;;;;-6.32;78.81;147086.94;10670748;27;20043;-75
2024/01/21 06:30:27;;;;;;;8.77;6.15;;;;;;;-6.35;78.81;147080.56;10671982;27;20042;-76
2024/01/21 06:35:29;;;;;;;7.65;6.55;;;;;;;-6.24;79.22;147107.31;10671555;27;20039;-75
2024/01/21 06:40:31;;;;;;;7.43;5.10;;;;;;;-6.55;80.80;147029.66;10662088;27;20091;-76
2024/01/21 06:45:33;;;;;;;8.82;5.75;;;;;;;-6.51;81.21;147038.53;10680473;27;20588;-75
2024/01/21 06:50:35;;;;;;;8.70;5.28;;;;;;;-6.47;81.37;147048.72;10680098;27;20066;-76
2024/01/21 06:55:36;;;;;;;8.18;5.70;;;;;;;-6.42;81.54;147062.75;10679911;27;20046;-76
2024/01/21 07:00:39;;;;;;;11.38;5.57;;;;;;;-6.24;81.02;147107.31;10678924;27;20034;-75
2024/01/21 07:05:41;;;;;;;7.13;5.68;;;;;;;-6.25;80.94;147104.72;10661705;27;20083;-76
2024/01/21 07:10:43;;;;;;;8.27;6.20;;;;;;;-6.10;80.27;147141.69;10679156;27;20039;-76
2024/01/21 07:15:44;;;;;;;6.60;5.25;;;;;;;-6.05;80.08;147154.41;10680208;27;20057;-76
2024/01/21 07:20:46;;;;;;;9.73;6.78;;;;;;;-6.07;80.03;147149.28;10679139;27;20087;-75
2024/01/21 07:25:48;;;;;;;11.27;5.80;;;;;;;-6.08;81.00;147145.50;10678911;27;20050;-75
2024/01/21 07:30:50;;;;;;;11.18;6.28;;;;;;;-5.98;79.88;147170.94;10679556;27;20087;-77
2024/01/21 07:35:53;;;;;;;7.78;6.35;;;;;;;-5.83;79.98;147209.13;10661453;27;20053;-76
2024/01/21 07:40:55;;;;;;;7.45;6.03;;;;;;;-5.71;79.65;147239.69;10680047;27;20035;-76
2024/01/21 07:45:56;;;;;;;6.55;5.47;;;;;;;-5.59;78.73;147270.25;10679955;27;20051;-76
2024/01/21 07:50:59;;;;;;;5.97;5.22;;;;;;;-5.44;78.27;147305.94;10660049;27;20038;-76
2024/01/21 07:56:00;;;;;;;14.68;8.90;;;;;;;-5.52;78.70;147285.56;10679060;27;20042;-76
2024/01/21 08:01:06;;;;;;;9.10;6.05;;;;;;;-5.30;78.01;147341.59;10679584;27;20409;-76
2024/01/21 08:06:08;;;;;;;6.90;5.57;;;;;;;-5.13;77.87;147384.94;10678817;27;20039;-75
2024/01/21 08:11:10;;;;;;;8.45;5.85;;;;;;;-5.00;77.90;147416.81;10660923;27;20038;-76
2024/01/21 08:16:13;;;;;;;7.35;5.55;;;;;;;-4.71;76.69;147489.44;10659576;27;20070;-74
2024/01/21 08:21:15;;;;;;;9.25;6.22;;;;;;;-4.43;75.91;147559.53;10678327;27;20042;-75
2024/01/21 08:26:17;;;;;;;8.70;6.20;;;;;;;-4.18;74.72;147620.78;10660274;27;20076;-76
2024/01/21 08:31:20;;;;;;;11.50;7.63;;;;;;;-4.03;74.88;147657.75;10659814;27;20042;-76
2024/01/21 08:36:22;;;;;;;9.93;7.03;;;;;;;-4.01;74.70;147662.88;10659001;27;20512;-75
2024/01/21 08:41:24;;;;;;;10.15;7.22;;;;;;;-3.99;74.83;147667.97;10678311;27;20035;-76
2024/01/21 08:46:26;;;;;;;10.07;7.45;;;;;;;-3.93;74.07;147683.31;10658777;27;20410;-76
2024/01/21 08:51:29;;;;;;;9.25;6.68;;;;;;;-3.73;73.83;147733.03;10677267;27;20123;-76
2024/01/21 08:56:32;;;;;;;9.77;8.05;;;;;;;-3.71;73.12;147739.44;10640570;27;20038;-77
2024/01/21 09:01:34;;;;;;;15.23;7.40;;;;;;;-3.71;73.29;147738.16;10675392;27;20062;-75
2024/01/21 09:06:41;;;;;;;9.65;7.40;;;;;;;-3.52;73.55;147786.63;10674353;27;20406;-75
2024/01/21 09:11:44;;;;;;;10.23;8.32;;;;;;;-3.44;73.42;147805.78;10651872;27;20058;-75
2024/01/21 09:16:47;;;;;;;9.50;7.50;;;;;;;-3.08;72.57;147897.69;10676953;27;20038;-75
2024/01/21 09:21:49;;;;;;;11.73;7.72;;;;;;;-3.01;73.00;147913.00;10674726;27;20046;-76
2024/01/21 09:26:51;;;;;;;8.20;6.63;;;;;;;-2.76;71.53;147975.59;10674556;27;20038;-77
2024/01/21 09:31:56;;;;;;;11.40;7.72;;;;;;;-2.48;69.88;148047.09;10674200;27;20049;-77
2024/01/21 09:36:58;;;;;;;9.15;7.13;;;;;;;-2.18;68.96;148122.47;10675215;27;20045;-77
2024/01/21 09:42:05;;;;;;;11.48;8.18;;;;;;;-2.05;67.76;148154.41;10655352;27;20042;-77
2024/01/21 09:47:10;;;;;;;7.43;6.60;;;;;;;-2.00;68.32;148165.91;10673196;27;20039;-77
2024/01/21 09:52:14;;;;;;;10.38;8.18;;;;;;;-1.58;66.22;148273.31;10672935;27;20573;-79
2024/01/21 09:57:16;;;;;;;17.45;8.50;;;;;;;-1.58;66.66;148273.31;10659603;27;20106;-77
2024/01/21 10:02:18;;;;;;;14.55;8.80;;;;;;;-1.31;64.76;148339.78;10673488;27;20125;-77
2024/01/21 10:07:21;;;;;;;11.35;7.63;;;;;;;-1.28;64.91;148348.75;10656286;27;20532;-77
2024/01/21 10:12:26;;;;;;;8.93;6.57;;;;;;;-1.34;64.71;148333.38;10673514;27;20482;-77
2024/01/21 10:17:27;;;;;;;8.57;6.97;;;;;;;-1.14;64.06;148383.28;10655997;27;20554;-76
2024/01/21 10:22:30;;;;;;;8.85;5.95;;;;;;;-0.91;64.41;148439.53;10673528;27;20042;-76
2024/01/21 10:27:31;;;;;;;7.88;5.85;;;;;;;-0.80;62.00;148468.97;10674559;27;20045;-76
2024/01/21 10:32:34;;;;;;;8.82;7.05;;;;;;;-0.74;62.13;148483.03;10675466;27;20058;-77
2024/01/21 10:37:41;;;;;;;8.32;5.70;;;;;;;-0.61;62.31;148515.03;10673708;27;20102;-76
2024/01/21 10:42:47;;;;;;;9.10;6.03;;;;;;;-0.62;62.60;148512.44;10654571;27;20069;-77
2024/01/21 10:47:49;;;;;;;8.70;6.15;;;;;;;-0.32;61.44;148587.94;10673607;27;20043;-75
2024/01/21 10:52:51;;;;;;;8.98;5.75;;;;;;;-0.25;60.71;148605.88;10671362;27;20034;-76
2024/01/21 10:57:53;;;;;;;7.40;5.57;;;;;;;-0.29;61.17;148595.66;10671368;27;20076;-74
2024/01/21 11:03:25;;;;;;;6.93;5.53;;;;;;;-0.33;61.94;148585.41;10655098;27;20066;-74
2024/01/21 11:08:28;;;;;;;6.22;5.05;;;;;;;-0.21;61.10;148614.84;10672004;27;20046;-75
2024/01/21 11:13:52;;;;;;;6.78;4.88;;;;;;;-0.09;61.60;148646.88;10652145;27;20042;-74
2024/01/21 11:18:58;;;;;;;7.38;5.18;;;;;;;0.09;60.98;148691.66;10636601;27;20042;-74
2024/01/21 11:24:06;;;;;;;6.72;5.90;;;;;;;0.38;58.08;148764.63;10656797;27;20042;-75
2024/01/21 11:29:27;;;;;;;6.90;5.43;;;;;;;0.32;58.64;148749.28;10679687;27;20038;-75
2024/01/21 11:34:38;;;;;;;8.50;6.22;;;;;;;0.53;59.35;148801.75;10679491;27;20035;-74
2024/01/21 11:39:42;;;;;;;6.13;4.90;;;;;;;0.86;57.38;148885.03;10679006;27;20039;-74
2024/01/21 11:44:44;;;;;;;5.70;5.00;;;;;;;1.05;54.70;148932.41;10659460;27;20042;-75
2024/01/21 11:49:46;;;;;;;9.55;6.18;;;;;;;0.83;56.97;148876.06;10661215;27;20532;-76
2024/01/21 11:54:50;;;;;;;8.80;4.63;;;;;;;0.81;54.76;148870.94;10679379;27;20121;-77
2024/01/21 11:59:52;;;;;;;7.10;4.80;;;;;;;0.80;56.87;148869.66;10680079;27;20071;-76
2024/01/21 12:04:54;;;;;;;6.47;4.57;;;;;;;0.38;56.54;148764.63;10678919;27;20048;-77
2024/01/21 12:09:58;;;;;;;4.88;3.67;;;;;;;0.55;55.06;148805.63;10658593;27;20035;-75
2024/01/21 12:15:00;;;;;;;6.28;4.80;;;;;;;0.66;55.11;148835.03;10677963;27;20409;-75
2024/01/21 12:20:05;;;;;;;6.75;5.13;;;;;;;0.81;55.09;148870.94;10659625;27;20042;-75
2024/01/21 12:25:11;;;;;;;7.50;5.50;;;;;;;0.71;55.58;148846.63;10676812;27;20043;-73
2024/01/21 12:30:14;;;;;;;7.63;4.53;;;;;;;0.75;55.21;148856.81;10657896;27;20091;-75
2024/01/21 12:35:16;;;;;;;5.60;4.95;;;;;;;0.97;53.08;148911.91;10677670;27;20062;-76
2024/01/21 12:40:20;;;;;;;5.95;4.15;;;;;;;1.03;53.33;148927.31;10675659;27;20091;-74
2024/01/21 12:45:22;;;;;;;5.47;4.97;;;;;;;1.14;52.76;148955.47;10674713;27;20106;-74
2024/01/21 12:50:24;;;;;;;5.65;3.78;;;;;;;1.12;52.34;148949.09;10656678;27;20042;-74
2024/01/21 12:55:26;;;;;;;4.93;3.88;;;;;;;1.34;50.35;149005.47;10674800;27;20047;-74
2024/01/21 13:00:28;;;;;;;5.13;3.78;;;;;;;1.23;51.27;148978.53;10675017;27;20034;-75
2024/01/21 13:05:29;;;;;;;8.35;3.88;;;;;;;1.40;51.13;149020.84;10675630;27;20118;-74
2024/01/21 13:10:31;;;;;;;4.88;3.45;;;;;;;1.34;50.95;149004.22;10675563;27;20046;-74
2024/01/21 13:15:33;;;;;;;4.32;3.67;;;;;;;1.64;49.99;149081.13;10675371;27;20045;-74
2024/01/21 13:20:35;;;;;;;5.38;3.42;;;;;;;1.73;49.91;149104.19;10675309;27;20042;-74
2024/01/21 13:25:37;;;;;;;5.82;3.50;;;;;;;1.52;47.34;149050.34;10657816;27;20561;-75
2024/01/21 13:30:46;;;;;;;4.00;3.55;;;;;;;1.22;49.55;148974.72;10675570;27;20106;-75
2024/01/21 13:35:49;;;;;;;4.30;2.95;;;;;;;1.31;50.63;148997.78;10674899;27;20153;-74
2024/01/21 13:40:52;;;;;;;4.47;3.25;;;;;;;1.21;50.26;148973.44;10676044;27;20406;-76
2024/01/21 13:45:54;;;;;;;4.88;4.25;;;;;;;0.99;51.83;148917.06;10658096;27;20115;-75
2024/01/21 13:50:56;;;;;;;4.55;3.15;;;;;;;1.22;50.80;148974.72;10675557;27;20039;-74
2024/01/21 13:55:58;;;;;;;5.43;3.95;;;;;;;0.98;52.34;148915.78;10675828;27;20042;-74
2024/01/21 14:01:00;;;;;;;4.55;3.70;;;;;;;1.12;50.16;148949.09;10678129;27;20027;-74
2024/01/21 14:06:02;;;;;;;7.15;3.70;;;;;;;0.65;53.51;148831.22;10676022;27;20472;-73
2024/01/21 14:11:04;;;;;;;5.40;4.43;;;;;;;0.84;51.60;148879.94;10673650;27;20039;-74
2024/01/21 14:16:06;;;;;;;5.47;3.28;;;;;;;0.69;52.15;148842.75;10673661;27;20069;-75
2024/01/21 14:21:08;;;;;;;6.15;4.43;;;;;;;0.77;50.89;148861.97;10674159;27;20039;-74
2024/01/21 14:26:12;;;;;;;7.00;4.88;;;;;;;0.81;51.84;148872.22;10674627;27;20039;-73
2024/01/21 14:31:14;;;;;;;9.93;5.53;;;;;;;0.54;53.34;148804.34;10674956;27;20062;-76
2024/01/21 14:36:16;;;;;;;68.72;26.27;;;;;;;0.77;51.44;148860.69;10675464;27;20452;-75
2024/01/21 14:41:18;;;;;;;19.20;12.95;;;;;;;0.61;53.88;148822.25;10658898;27;20046;-75
2024/01/21 14:46:20;;;;;;;13.25;7.95;;;;;;;0.75;53.74;148856.81;10657591;27;20133;-75
2024/01/21 14:51:22;;;;;;;9.50;7.15;;;;;;;0.65;52.95;148832.50;10674686;27;20119;-75
2024/01/21 14:56:24;;;;;;;20.25;8.68;;;;;;;0.84;53.96;148878.59;10675083;27;20103;-75
2024/01/21 15:01:28;;;;;;;7.68;5.55;;;;;;;0.74;55.37;148855.53;10664993;27;20125;-75
2024/01/21 15:06:31;;;;;;;9.43;6.60;;;;;;;0.50;55.42;148795.38;10683626;27;20455;-74
2024/01/21 15:11:33;;;;;;;10.13;5.88;;;;;;;0.30;56.39;148744.13;10682627;27;20506;-75
2024/01/21 15:16:35;;;;;;;14.52;5.57;;;;;;;0.71;54.40;148847.91;10664461;27;20091;-76
2024/01/21 15:21:37;;;;;;;5.90;4.63;;;;;;;0.35;56.75;148755.66;10682024;27;20068;-75
2024/01/21 15:26:39;;;;;;;7.47;5.43;;;;;;;-0.15;57.72;148631.47;10680390;27;20126;-75
2024/01/21 15:31:41;;;;;;;19.85;16.63;;;;;;;-0.42;58.64;148562.38;10680288;27;20494;-74
2024/01/21 15:36:42;;;;;;;60.08;31.35;;;;;;;-0.63;59.84;148511.16;10680989;27;20045;-75
2024/01/21 15:41:48;;;;;;;8.52;7.55;;;;;;;-0.74;59.52;148483.03;10660657;27;20516;-74
2024/01/21 15:46:50;;;;;;;6.47;5.20;;;;;;;-0.55;58.88;148530.38;10680004;27;20083;-75
2024/01/21 15:51:51;;;;;;;8.45;7.55;;;;;;;-0.46;60.32;148552.13;10679947;27;20110;-75
2024/01/21 15:56:53;;;;;;;8.70;6.20;;;;;;;-0.72;61.57;148488.13;10679844;27;20043;-75
2024/01/21 16:01:55;;;;;;;6.65;4.85;;;;;;;-0.72;57.16;148488.13;10661389;27;20054;-74
2024/01/21 16:06:57;;;;;;;5.95;4.13;;;;;;;-0.52;56.54;148538.06;10659757;27;20035;-74
2024/01/21 16:11:59;;;;;;;6.00;4.20;;;;;;;-0.45;55.71;148555.94;10677887;27;20049;-75
2024/01/21 16:17:01;;;;;;;5.22;3.92;;;;;;;-0.86;58.50;148452.34;10677794;27;20043;-74
2024/01/21 16:22:04;;;;;;;6.15;4.43;;;;;;;-0.62;56.45;148513.75;10677887;27;20046;-74
2024/01/21 16:27:07;;;;;;;10.25;4.70;;;;;;;-0.64;56.53;148508.63;10657425;27;20039;-74
2024/01/21 16:32:14;;;;;;;8.43;5.60;;;;;;;-0.92;58.26;148437.00;10677812;27;20083;-73
2024/01/21 16:37:16;;;;;;;7.18;5.28;;;;;;;-0.97;57.26;148424.16;10677337;27;20050;-73
2024/01/21 16:42:17;;;;;;;8.70;6.20;;;;;;;-0.98;58.10;148422.88;10674396;27;20039;-74
2024/01/21 16:47:20;;;;;;;7.35;5.15;;;;;;;-0.85;57.13;148454.88;10675704;27;20383;-74
2024/01/21 16:52:30;;;;;;;7.53;5.10;;;;;;;-0.84;57.53;148457.44;10674533;27;20054;-74
2024/01/21 16:57:32;;;;;;;7.22;5.07;;;;;;;-1.30;60.03;148342.34;10675699;27;20047;-74
2024/01/21 17:02:35;;;;;;;7.82;4.82;;;;;;;-1.02;59.06;148413.97;10675395;27;20038;-74
2024/01/21 17:07:38;;;;;;;8.93;6.22;;;;;;;-1.10;59.35;148392.22;10677110;27;20413;-74
2024/01/21 17:12:41;;;;;;;8.43;5.57;;;;;;;-1.29;59.71;148344.88;10676396;27;20505;-74
2024/01/21 17:17:52;;;;;;;10.35;5.15;;;;;;;-1.33;59.87;148334.66;10674857;27;20050;-74
2024/01/21 17:22:54;;;;;;;9.45;6.85;;;;;;;-1.26;60.52;148352.56;10655088;27;20066;-75
2024/01/21 17:27:56;;;;;;;9.88;6.22;;;;;;;-1.37;60.83;148325.72;10675732;27;20417;-75
2024/01/21 17:32:58;;;;;;;14.15;7.28;;;;;;;-1.65;63.17;148255.38;10675733;27;20494;-75
2024/01/21 17:38:00;;;;;;;10.23;6.93;;;;;;;-1.24;62.15;148357.66;10676647;27;20038;-75
2024/01/21 17:43:02;;;;;;;9.50;6.85;;;;;;;-1.18;60.85;148373.03;10675073;27;20041;-75
2024/01/21 17:48:06;;;;;;;11.13;7.50;;;;;;;-1.23;62.29;148360.25;10674291;27;20117;-75
2024/01/21 17:53:08;;;;;;;10.45;8.05;;;;;;;-1.45;63.07;148304.00;10675030;27;20126;-74
2024/01/21 17:58:11;;;;;;;11.88;8.55;;;;;;;-1.37;62.88;148325.72;10656887;27;20042;-74
2024/01/21 18:03:13;;;;;;;10.07;8.00;;;;;;;-1.24;61.84;148357.66;10676068;27;20019;-75
2024/01/21 18:08:15;;;;;;;13.90;8.45;;;;;;;-1.34;63.78;148332.09;10677656;27;20046;-75
2024/01/21 18:13:17;;;;;;;12.73;8.43;;;;;;;-1.30;62.65;148342.34;10677075;27;20045;-75
2024/01/21 18:18:23;;;;;;;13.05;8.25;;;;;;;-1.19;62.22;148370.50;10677062;27;20045;-76
2024/01/21 18:23:25;;;;;;;19.50;10.63;;;;;;;-1.24;62.78;148357.66;10675728;27;20039;-75
2024/01/21 18:28:27;;;;;;;10.02;7.82;;;;;;;-1.34;63.38;148332.09;10676658;27;20043;-76
2024/01/21 18:33:29;;;;;;;10.80;8.85;;;;;;;-1.20;62.96;148367.91;10664953;27;20051;-75
2024/01/21 18:38:32;;;;;;;10.52;8.02;;;;;;;-1.40;63.08;148316.78;10674033;27;20092;-76
2024/01/21 18:43:36;;;;;;;13.05;8.15;;;;;;;-1.39;62.65;148320.59;10674031;27;20110;-76
2024/01/21 18:48:40;;;;;;;12.07;8.50;;;;;;;-1.70;64.80;148241.34;10692673;27;20045;-74
2024/01/21 18:53:42;;;;;;;12.57;8.38;;;;;;;-1.65;64.74;148254.13;10655220;27;20110;-75
2024/01/21 18:58:45;;;;;;;12.77;8.68;;;;;;;-1.73;64.96;148233.66;10690872;27;20066;-76
2024/01/21 19:03:47;;;;;;;11.68;8.32;;;;;;;-1.80;65.44;148218.34;10690987;27;20035;-75
2024/01/21 19:08:49;;;;;;;9.23;7.85;;;;;;;-1.62;65.02;148263.06;10690420;27;20043;-76
2024/01/21 19:13:51;;;;;;;12.52;8.98;;;;;;;-1.54;65.16;148283.53;10690248;27;20119;-75
2024/01/21 19:18:54;;;;;;;11.30;8.25;;;;;;;-1.58;64.55;148273.31;10671460;27;20501;-75
2024/01/21 19:24:01;;;;;;;11.05;9.05;;;;;;;-1.63;65.13;148260.53;10688313;27;20409;-76
2024/01/21 19:29:04;;;;;;;14.43;9.45;;;;;;;-1.61;65.17;148264.34;10654195;27;20141;-75
2024/01/21 19:34:07;;;;;;;9.95;8.25;;;;;;;-1.57;65.24;148274.56;10691008;27;20067;-76
2024/01/21 19:39:09;;;;;;;15.65;10.43;;;;;;;-1.61;65.35;148265.63;10671808;27;20426;-76
2024/01/21 19:44:11;;;;;;;12.18;9.60;;;;;;;-1.68;66.50;148247.75;10685392;27;20066;-77
2024/01/21 19:49:13;;;;;;;11.70;9.15;;;;;;;-1.93;67.76;148183.84;10684021;27;20039;-76
2024/01/21 19:54:17;;;;;;;12.82;9.10;;;;;;;-1.91;67.34;148190.19;10664784;27;20039;-77
2024/01/21 19:59:20;;;;;;;16.35;10.73;;;;;;;-1.69;66.20;148245.16;10683533;27;20498;-77
2024/01/21 20:04:22;;;;;;;19.25;9.88;;;;;;;-1.89;68.22;148194.06;10664431;27;20110;-75
2024/01/21 20:09:24;;;;;;;16.33;10.88;;;;;;;-1.91;68.81;148190.19;10682223;27;20049;-77
2024/01/21 20:14:26;;;;;;;12.48;10.27;;;;;;;-1.94;69.02;148182.56;10684849;27;20045;-78
2024/01/21 20:19:28;;;;;;;23.40;10.82;;;;;;;-1.90;69.07;148191.50;10663197;27;20054;-76
2024/01/21 20:24:31;;;;;;;12.25;10.00;;;;;;;-1.88;69.51;148197.88;10662241;27;20068;-76
2024/01/21 20:29:33;;;;;;;14.95;10.25;;;;;;;-1.74;68.21;148231.09;10678647;27;20460;-77
2024/01/21 20:34:35;;;;;;;14.90;10.52;;;;;;;-1.92;69.27;148187.66;10662145;27;20039;-77
2024/01/21 20:39:37;;;;;;;14.23;9.65;;;;;;;-1.93;69.40;148185.09;10662372;27;20443;-76
2024/01/21 20:44:39;;;;;;;13.63;10.52;;;;;;;-1.71;69.12;148238.78;10661881;27;20047;-76
2024/01/21 20:49:44;;;;;;;17.33;11.48;;;;;;;-1.90;70.09;148191.50;10661479;27;20043;-76
2024/01/21 20:54:46;;;;;;;18.73;10.63;;;;;;;-2.04;71.02;148156.97;10663169;27;20035;-76
2024/01/21 20:59:49;;;;;;;11.65;9.75;;;;;;;-2.13;71.59;148135.25;10660301;27;20047;-76
2024/01/21 21:04:51;;;;;;;11.27;9.18;;;;;;;-1.91;71.06;148190.19;10661221;27;20038;-76
2024/01/21 21:09:53;;;;;;;10.25;8.90;;;;;;;-1.86;70.92;148201.69;10679431;27;20517;-77
2024/01/21 21:14:54;;;;;;;14.43;9.93;;;;;;;-2.27;73.19;148099.47;10680205;27;20042;-76
2024/01/21 21:19:57;;;;;;;15.30;10.52;;;;;;;-2.07;72.15;148150.59;10679120;27;20045;-76
2024/01/21 21:24:59;;;;;;;15.55;10.70;;;;;;;-2.42;74.19;148061.16;10660510;27;20118;-76
2024/01/21 21:30:01;;;;;;;12.63;9.93;;;;;;;-2.30;74.25;148091.84;10659860;27;20414;-75
2024/01/21 21:35:04;;;;;;;16.27;10.20;;;;;;;-2.27;75.00;148099.47;10676996;27;20375;-76
2024/01/21 21:40:06;;;;;;;12.63;9.88;;;;;;;-2.36;75.58;148077.75;10658294;27;20478;-76
2024/01/21 21:45:09;;;;;;;12.18;10.30;;;;;;;-2.19;75.93;148118.66;10676383;27;20043;-77
2024/01/21 21:50:12;;;;;;;13.95;10.13;;;;;;;-1.99;75.21;148169.78;10656925;27;20042;-76
2024/01/21 21:55:14;;;;;;;11.35;9.13;;;;;;;-1.84;75.12;148206.84;10675702;27;20035;-76
2024/01/21 22:00:16;;;;;;;15.18;10.52;;;;;;;-1.99;76.35;148168.47;10655267;27;20103;-77
2024/01/21 22:05:18;;;;;;;11.32;9.75;;;;;;;-1.83;75.81;148210.66;10673048;27;20042;-76
2024/01/21 22:10:21;;;;;;;21.38;10.10;;;;;;;-1.83;76.87;148209.38;10673160;27;20070;-76
2024/01/21 22:15:23;;;;;;;19.52;11.93;;;;;;;-1.97;76.92;148174.88;10672018;27;20036;-76
2024/01/21 22:20:25;;;;;;;16.27;9.52;;;;;;;-2.14;78.00;148132.69;10670474;27;20035;-75
2024/01/21 22:25:26;;;;;;;11.25;9.20;;;;;;;-2.17;79.55;148125.06;10671287;27;20046;-76
2024/01/21 22:30:29;;;;;;;11.77;9.23;;;;;;;-2.09;80.15;148144.19;10652765;27;20088;-76
2024/01/21 22:35:31;;;;;;;13.75;10.75;;;;;;;-1.96;80.83;148177.41;10671728;27;20499;-75
2024/01/21 22:40:33;;;;;;;13.13;10.93;;;;;;;-1.89;80.87;148194.06;10653197;27;20117;-75
2024/01/21 22:45:35;;;;;;;14.27;11.27;;;;;;;-1.85;80.27;148205.56;10670997;27;20458;-76
2024/01/21 22:50:38;;;;;;;18.38;11.15;;;;;;;-2.03;80.79;148160.84;10672038;27;20042;-75
2024/01/21 22:55:40;;;;;;;14.88;12.25;;;;;;;-1.97;80.09;148173.59;10671459;27;20045;-75
2024/01/21 23:00:42;;;;;;;21.20;11.52;;;;;;;-1.86;79.06;148201.69;10671512;27;20045;-75
2024/01/21 23:05:44;;;;;;;14.18;11.32;;;;;;;-2.00;79.25;148165.91;10671797;27;20494;-76